Post Lake, Wisconsin
Current Conditions -  °F | °C
As of 7:55 AM on Wednesday 26 Nov 2014 (Local Time) from KAIG Reporting Station
Haze Haze  
Wind Chill: 14°   Ceiling: 7000
Heat Index: 14°   Visibility: 5mi
Dew Point: 13°   Wind: 0mph
Humidity: 95%   Direction: NA
Pressure: 30.1"   Gusts: NA
Location:  45.4353°N, 89.1485°W
Report Text: KAIG 261355Z AUTO 00000KT 5SM BR OVC070 M10/M10 A3010 RMK AO2 T10981105
Loading
Personal Weather Stations






























Interactive Weather Map New forecast layout! Learn more

10-Day Weather Forecast

Advertisements
Track Severe Weather on mobile